Shawnee Mission, KS (66224)

6:43 PM CST on November 26, 2014 (GMT -0600)
KKSLEAWO2 | Change Station
CLOSE
Current Station
Personal Weather Station
Location: Leawood, KS
Elevation: 940 ft
Nearby Weather Stations

Elev 940 ft 38.90 °N, 94.63 °W | Updated 19 seconds ago

Overcast
Overcast
31.1 °F
Feels Like 25 °F
N
6.2
Wind Variable Wind from NNW
Gusts 8.7 mph

Today
High -- | Low -- °F
--% Chance of Precip.
Yesterday
High -- | Low -- °F
Precip. -- in
7:13 AM 4:58 PM
Waxing Crescent, 24% visible
Pressure 30.22 in
Visibility 10.0 miles
Clouds Overcast 2100 ft
Windchill 25 °F
Dew Point 24 °F
Humidity 77%
Rainfall 0.05 in
Snow Depth Not available.
UV 0 out of 12
Pollen .10 out of 12
Air Quality Not available.
Flu Activity Not available.
METAR KOJC 262353Z 32021G31KT 10SM OVC021 00/M04 A3019 RMK AO2 PK WND 32031/2352 SLP232 T00001044 10056 20000 51035

More Conditions Fewer Conditions

Pressure 30.22 in
Visibility 10.0 miles
Clouds Overcast 2100 ft
Windchill 25 °F
Dew Point 24 °F
Humidity 77%
Rainfall 0.05 in
Snow Depth Not available.
UV 0 out of 12
Pollen .10 out of 12
Air Quality Not available.
Flu Activity Not available.
METAR KOJC 262353Z 32021G31KT 10SM OVC021 00/M04 A3019 RMK AO2 PK WND 32031/2352 SLP232 T00001044 10056 20000 51035

More Conditions Fewer Conditions

10-Day Weather Forecast

Almanac

Astronomy

Nov. 26, 2014 Rise Set
Actual Time
Civil Twilight
Nautical Twilight
Astronomical Twilight
Moon
Length of Visible Light
Length of Day
Tomorrow will be .
, % of the Moon is Illuminated

Today's Extremes

State Highs State Lows

Community

WunderPhotos

Upload Photos

1,773,930 photos uploaded!

WunderBlogs® & News

Nearby

Air Quality

  Air Quality AQ Index Pollutant
Not available.

Snow Depth

Station Depth Elevation

Earthquake Activity

City Distance Mag. Time & Date
Minimum magnitude displayed is 2.5.

Coastal Water Temperatures

Place Temperature

Nearby Weather Stations